sensor_id;sensor_type;location;lat;lon;timestamp;pressure;altitude;pressure_sealevel;temperature;humidity
13800;BME280;6971;50.028;9.258;2023-02-21T00:04:19;99870.28;;;3.46;100.00
13800;BME280;6971;50.028;9.258;2023-02-21T00:09:38;99875.25;;;3.08;100.00
13800;BME280;6971;50.028;9.258;2023-02-21T00:14:58;99874.13;;;3.23;100.00
13800;BME280;6971;50.028;9.258;2023-02-21T00:20:16;99869.88;;;3.17;100.00
13800;BME280;6971;50.028;9.258;2023-02-21T00:25:35;99865.78;;;3.00;100.00
13800;BME280;6971;50.028;9.258;2023-02-21T00:30:55;99863.94;;;3.07;100.00
13800;BME280;6971;50.028;9.258;2023-02-21T00:36:16;99869.22;;;3.04;100.00
13800;BME280;6971;50.028;9.258;2023-02-21T00:41:35;99855.03;;;3.22;100.00
13800;BME280;6971;50.028;9.258;2023-02-21T00:46:54;99857.00;;;3.09;100.00
13800;BME280;6971;50.028;9.258;2023-02-21T00:52:13;99855.81;;;3.28;100.00
13800;BME280;6971;50.028;9.258;2023-02-21T00:57:31;99844.22;;;3.44;100.00
13800;BME280;6971;50.028;9.258;2023-02-21T01:02:50;99847.50;;;3.57;100.00
13800;BME280;6971;50.028;9.258;2023-02-21T01:08:09;99845.56;;;3.65;100.00
13800;BME280;6971;50.028;9.258;2023-02-21T01:13:28;99845.38;;;3.76;100.00
13800;BME280;6971;50.028;9.258;2023-02-21T01:18:47;99840.81;;;3.88;100.00
13800;BME280;6971;50.028;9.258;2023-02-21T01:24:10;99844.31;;;3.88;100.00
13800;BME280;6971;50.028;9.258;2023-02-21T01:29:29;99838.19;;;3.89;100.00
13800;BME280;6971;50.028;9.258;2023-02-21T01:34:48;99839.66;;;4.03;100.00
13800;BME280;6971;50.028;9.258;2023-02-21T01:40:07;99833.19;;;4.21;100.00
13800;BME280;6971;50.028;9.258;2023-02-21T01:45:50;99834.84;;;4.25;100.00
13800;BME280;6971;50.028;9.258;2023-02-21T01:51:13;99840.69;;;4.37;100.00
13800;BME280;6971;50.028;9.258;2023-02-21T01:56:34;99832.91;;;4.34;100.00
13800;BME280;6971;50.028;9.258;2023-02-21T02:02:14;99834.97;;;4.60;100.00
13800;BME280;6971;50.028;9.258;2023-02-21T02:07:38;99830.47;;;4.67;100.00
13800;BME280;6971;50.028;9.258;2023-02-21T02:18:33;99821.81;;;4.63;100.00
13800;BME280;6971;50.028;9.258;2023-02-21T02:24:05;99815.72;;;4.64;100.00
13800;BME280;6971;50.028;9.258;2023-02-21T02:40:02;99803.63;;;4.60;100.00
13800;BME280;6971;50.028;9.258;2023-02-21T02:45:12;99802.25;;;4.45;100.00
13800;BME280;6971;50.028;9.258;2023-02-21T02:50:14;99803.13;;;4.44;100.00
13800;BME280;6971;50.028;9.258;2023-02-21T02:55:39;99803.84;;;4.51;100.00
13800;BME280;6971;50.028;9.258;2023-02-21T03:00:44;99794.84;;;4.25;100.00
13800;BME280;6971;50.028;9.258;2023-02-21T03:21:34;99811.66;;;4.11;100.00
13800;BME280;6971;50.028;9.258;2023-02-21T03:26:37;99809.03;;;4.13;100.00
13800;BME280;6971;50.028;9.258;2023-02-21T03:31:44;99807.03;;;4.24;100.00
13800;BME280;6971;50.028;9.258;2023-02-21T03:36:47;99812.13;;;4.30;100.00
13800;BME280;6971;50.028;9.258;2023-02-21T03:41:48;99815.59;;;4.31;100.00
13800;BME280;6971;50.028;9.258;2023-02-21T03:46:48;99811.06;;;4.39;100.00
13800;BME280;6971;50.028;9.258;2023-02-21T03:51:49;99808.59;;;4.33;100.00
13800;BME280;6971;50.028;9.258;2023-02-21T03:56:49;99804.00;;;4.43;100.00
13800;BME280;6971;50.028;9.258;2023-02-21T04:01:49;99795.81;;;4.60;100.00
13800;BME280;6971;50.028;9.258;2023-02-21T04:06:50;99801.19;;;4.52;100.00
13800;BME280;6971;50.028;9.258;2023-02-21T04:11:50;99796.69;;;4.59;100.00
13800;BME280;6971;50.028;9.258;2023-02-21T04:16:51;99801.75;;;4.67;100.00
13800;BME280;6971;50.028;9.258;2023-02-21T04:21:51;99801.00;;;4.62;100.00
13800;BME280;6971;50.028;9.258;2023-02-21T04:26:51;99808.72;;;4.66;100.00
13800;BME280;6971;50.028;9.258;2023-02-21T04:31:52;99813.84;;;4.71;100.00
13800;BME280;6971;50.028;9.258;2023-02-21T04:36:52;99816.09;;;4.85;100.00
13800;BME280;6971;50.028;9.258;2023-02-21T04:41:53;99804.81;;;4.85;100.00
13800;BME280;6971;50.028;9.258;2023-02-21T04:46:53;99797.94;;;4.80;100.00
13800;BME280;6971;50.028;9.258;2023-02-21T04:51:55;99800.16;;;4.96;100.00
13800;BME280;6971;50.028;9.258;2023-02-21T04:56:55;99793.06;;;5.01;100.00
13800;BME280;6971;50.028;9.258;2023-02-21T05:01:56;99791.50;;;4.95;100.00
13800;BME280;6971;50.028;9.258;2023-02-21T05:06:58;99786.94;;;5.04;100.00
13800;BME280;6971;50.028;9.258;2023-02-21T05:11:58;99780.06;;;5.00;100.00
13800;BME280;6971;50.028;9.258;2023-02-21T05:16:59;99779.38;;;4.93;100.00
13800;BME280;6971;50.028;9.258;2023-02-21T05:22:01;99773.50;;;4.83;100.00
13800;BME280;6971;50.028;9.258;2023-02-21T05:27:01;99773.44;;;4.86;100.00
13800;BME280;6971;50.028;9.258;2023-02-21T05:32:02;99766.72;;;4.76;100.00
13800;BME280;6971;50.028;9.258;2023-02-21T05:37:03;99771.31;;;4.66;100.00
13800;BME280;6971;50.028;9.258;2023-02-21T05:42:03;99769.69;;;4.60;100.00
13800;BME280;6971;50.028;9.258;2023-02-21T05:47:04;99769.94;;;4.49;100.00
13800;BME280;6971;50.028;9.258;2023-02-21T05:52:09;99765.69;;;4.45;100.00
13800;BME280;6971;50.028;9.258;2023-02-21T05:57:10;99755.50;;;4.34;100.00
13800;BME280;6971;50.028;9.258;2023-02-21T06:02:10;99757.63;;;4.16;100.00
13800;BME280;6971;50.028;9.258;2023-02-21T06:07:11;99758.88;;;3.98;100.00
13800;BME280;6971;50.028;9.258;2023-02-21T06:12:11;99759.22;;;3.83;100.00
13800;BME280;6971;50.028;9.258;2023-02-21T06:17:12;99756.19;;;3.60;100.00
13800;BME280;6971;50.028;9.258;2023-02-21T06:22:12;99759.72;;;3.58;100.00
13800;BME280;6971;50.028;9.258;2023-02-21T06:27:20;99758.25;;;3.44;100.00
13800;BME280;6971;50.028;9.258;2023-02-21T06:32:20;99761.09;;;3.30;100.00
13800;BME280;6971;50.028;9.258;2023-02-21T06:37:20;99768.03;;;3.33;100.00
13800;BME280;6971;50.028;9.258;2023-02-21T06:42:21;99764.88;;;3.15;100.00
13800;BME280;6971;50.028;9.258;2023-02-21T06:47:22;99774.28;;;3.21;100.00
13800;BME280;6971;50.028;9.258;2023-02-21T06:52:22;99779.31;;;3.32;100.00
13800;BME280;6971;50.028;9.258;2023-02-21T06:57:23;99783.56;;;3.37;100.00
13800;BME280;6971;50.028;9.258;2023-02-21T07:02:23;99789.38;;;3.50;100.00
13800;BME280;6971;50.028;9.258;2023-02-21T07:07:24;99794.47;;;3.58;100.00
13800;BME280;6971;50.028;9.258;2023-02-21T07:12:25;99798.56;;;3.72;100.00
13800;BME280;6971;50.028;9.258;2023-02-21T07:17:26;99801.88;;;3.80;100.00
13800;BME280;6971;50.028;9.258;2023-02-21T07:22:27;99803.91;;;4.08;100.00
13800;BME280;6971;50.028;9.258;2023-02-21T07:27:27;99804.53;;;4.20;100.00
13800;BME280;6971;50.028;9.258;2023-02-21T07:32:28;99798.09;;;4.35;100.00
13800;BME280;6971;50.028;9.258;2023-02-21T07:37:28;99806.63;;;4.43;100.00
13800;BME280;6971;50.028;9.258;2023-02-21T07:42:28;99798.28;;;4.65;100.00
13800;BME280;6971;50.028;9.258;2023-02-21T07:47:29;99812.53;;;4.88;100.00
13800;BME280;6971;50.028;9.258;2023-02-21T07:52:29;99809.44;;;5.08;100.00
13800;BME280;6971;50.028;9.258;2023-02-21T07:57:29;99807.56;;;5.15;100.00
13800;BME280;6971;50.028;9.258;2023-02-21T08:02:30;99801.00;;;5.31;100.00
13800;BME280;6971;50.028;9.258;2023-02-21T08:07:34;99800.63;;;5.47;100.00
13800;BME280;6971;50.028;9.258;2023-02-21T08:12:36;99810.25;;;5.78;100.00
13800;BME280;6971;50.028;9.258;2023-02-21T08:17:36;99807.75;;;6.05;100.00
13800;BME280;6971;50.028;9.258;2023-02-21T08:22:37;99805.03;;;6.38;100.00
13800;BME280;6971;50.028;9.258;2023-02-21T08:27:38;99811.13;;;6.68;100.00
13800;BME280;6971;50.028;9.258;2023-02-21T08:32:39;99800.25;;;6.80;100.00
13800;BME280;6971;50.028;9.258;2023-02-21T08:37:46;99797.03;;;6.99;100.00
13800;BME280;6971;50.028;9.258;2023-02-21T08:42:51;99794.00;;;7.11;100.00
13800;BME280;6971;50.028;9.258;2023-02-21T08:47:53;99789.41;;;7.43;100.00
13800;BME280;6971;50.028;9.258;2023-02-21T08:52:54;99806.09;;;7.41;100.00
13800;BME280;6971;50.028;9.258;2023-02-21T08:57:55;99810.09;;;7.26;100.00
13800;BME280;6971;50.028;9.258;2023-02-21T09:02:56;99812.63;;;7.54;100.00
13800;BME280;6971;50.028;9.258;2023-02-21T09:07:59;99819.16;;;7.42;100.00
13800;BME280;6971;50.028;9.258;2023-02-21T09:13:01;99824.56;;;7.63;99.74
13800;BME280;6971;50.028;9.258;2023-02-21T09:18:02;99818.41;;;7.64;99.56
13800;BME280;6971;50.028;9.258;2023-02-21T09:23:05;99823.13;;;8.04;97.27
13800;BME280;6971;50.028;9.258;2023-02-21T09:28:05;99813.56;;;8.25;96.80
13800;BME280;6971;50.028;9.258;2023-02-21T09:33:06;99809.81;;;8.32;95.91
13800;BME280;6971;50.028;9.258;2023-02-21T09:38:07;99811.94;;;7.99;93.51
13800;BME280;6971;50.028;9.258;2023-02-21T09:43:15;99814.75;;;8.16;93.41
13800;BME280;6971;50.028;9.258;2023-02-21T09:48:32;99815.91;;;8.33;93.08
13800;BME280;6971;50.028;9.258;2023-02-21T09:53:37;99818.53;;;8.57;91.50
13800;BME280;6971;50.028;9.258;2023-02-21T09:58:49;99806.50;;;8.49;91.37
13800;BME280;6971;50.028;9.258;2023-02-21T10:14:47;99809.91;;;8.75;90.01
13800;BME280;6971;50.028;9.258;2023-02-21T10:19:56;99808.72;;;8.83;89.28
13800;BME280;6971;50.028;9.258;2023-02-21T10:24:57;99810.78;;;8.97;87.80
13800;BME280;6971;50.028;9.258;2023-02-21T10:30:09;99808.53;;;9.10;88.46
13800;BME280;6971;50.028;9.258;2023-02-21T10:35:10;99805.25;;;9.25;87.06
13800;BME280;6971;50.028;9.258;2023-02-21T10:46:14;99811.56;;;9.42;86.75
13800;BME280;6971;50.028;9.258;2023-02-21T10:51:29;99810.97;;;9.96;83.42
13800;BME280;6971;50.028;9.258;2023-02-21T10:56:30;99802.91;;;9.59;84.64
13800;BME280;6971;50.028;9.258;2023-02-21T11:01:49;99806.47;;;9.79;84.83
13800;BME280;6971;50.028;9.258;2023-02-21T11:06:54;99803.47;;;9.87;84.04
13800;BME280;6971;50.028;9.258;2023-02-21T11:12:23;99797.88;;;10.33;83.34
13800;BME280;6971;50.028;9.258;2023-02-21T11:17:25;99783.78;;;10.53;82.21
13800;BME280;6971;50.028;9.258;2023-02-21T11:27:35;99776.19;;;10.47;83.94
13800;BME280;6971;50.028;9.258;2023-02-21T11:32:40;99769.66;;;10.54;82.64
13800;BME280;6971;50.028;9.258;2023-02-21T11:37:58;99758.31;;;10.72;83.79
13800;BME280;6971;50.028;9.258;2023-02-21T11:43:20;99751.03;;;10.77;82.89
13800;BME280;6971;50.028;9.258;2023-02-21T11:48:21;99751.25;;;10.72;84.40
13800;BME280;6971;50.028;9.258;2023-02-21T11:53:36;99744.97;;;10.75;83.77
13800;BME280;6971;50.028;9.258;2023-02-21T11:58:53;99749.69;;;11.03;82.83
13800;BME280;6971;50.028;9.258;2023-02-21T12:09:44;99724.88;;;10.90;84.82
13800;BME280;6971;50.028;9.258;2023-02-21T12:15:03;99719.88;;;10.85;83.22
13800;BME280;6971;50.028;9.258;2023-02-21T12:20:21;99705.00;;;11.00;83.87
13800;BME280;6971;50.028;9.258;2023-02-21T12:25:49;99703.44;;;11.81;82.32
13800;BME280;6971;50.028;9.258;2023-02-21T12:47:16;99665.63;;;15.12;70.13
13800;BME280;6971;50.028;9.258;2023-02-21T13:03:39;99636.63;;;13.89;73.56
13800;BME280;6971;50.028;9.258;2023-02-21T13:09:34;99629.94;;;13.96;73.03
13800;BME280;6971;50.028;9.258;2023-02-21T13:14:36;99612.25;;;14.78;71.63
13800;BME280;6971;50.028;9.258;2023-02-21T13:19:43;99606.53;;;14.84;68.94
13800;BME280;6971;50.028;9.258;2023-02-21T13:24:59;99599.69;;;14.67;70.61
13800;BME280;6971;50.028;9.258;2023-02-21T13:30:22;99589.31;;;14.64;70.19
13800;BME280;6971;50.028;9.258;2023-02-21T13:35:36;99578.47;;;14.67;71.26
13800;BME280;6971;50.028;9.258;2023-02-21T13:41:09;99560.50;;;14.32;70.81
13800;BME280;6971;50.028;9.258;2023-02-21T13:51:49;99552.38;;;15.13;69.47
13800;BME280;6971;50.028;9.258;2023-02-21T13:56:52;99544.50;;;15.11;68.56
13800;BME280;6971;50.028;9.258;2023-02-21T14:02:16;99540.81;;;13.82;71.39
13800;BME280;6971;50.028;9.258;2023-02-21T14:07:42;99537.31;;;14.48;71.75
13800;BME280;6971;50.028;9.258;2023-02-21T14:12:43;99540.22;;;14.84;70.87
13800;BME280;6971;50.028;9.258;2023-02-21T14:17:46;99525.84;;;14.22;72.31
13800;BME280;6971;50.028;9.258;2023-02-21T14:22:49;99531.16;;;14.35;71.46
13800;BME280;6971;50.028;9.258;2023-02-21T14:27:53;99519.19;;;13.76;73.61
13800;BME280;6971;50.028;9.258;2023-02-21T14:32:59;99514.41;;;14.47;71.46
13800;BME280;6971;50.028;9.258;2023-02-21T14:38:17;99502.41;;;14.55;71.20
13800;BME280;6971;50.028;9.258;2023-02-21T14:43:35;99504.19;;;14.67;70.48
13800;BME280;6971;50.028;9.258;2023-02-21T14:59:08;99486.19;;;14.20;72.28
13800;BME280;6971;50.028;9.258;2023-02-21T15:04:23;99476.66;;;14.18;72.15
13800;BME280;6971;50.028;9.258;2023-02-21T15:09:27;99471.31;;;14.05;72.55
13800;BME280;6971;50.028;9.258;2023-02-21T15:14:32;99470.59;;;14.03;71.46
13800;BME280;6971;50.028;9.258;2023-02-21T15:19:35;99463.38;;;13.92;73.64
13800;BME280;6971;50.028;9.258;2023-02-21T15:24:35;99457.50;;;13.74;74.25
13800;BME280;6971;50.028;9.258;2023-02-21T15:29:36;99449.28;;;13.51;75.52
13800;BME280;6971;50.028;9.258;2023-02-21T15:34:41;99453.25;;;13.43;74.41
13800;BME280;6971;50.028;9.258;2023-02-21T15:39:51;99446.84;;;13.48;74.21
13800;BME280;6971;50.028;9.258;2023-02-21T15:44:57;99448.53;;;13.21;74.55
13800;BME280;6971;50.028;9.258;2023-02-21T15:50:12;99448.09;;;13.00;76.72
13800;BME280;6971;50.028;9.258;2023-02-21T16:00:25;99449.09;;;12.26;83.81
13800;BME280;6971;50.028;9.258;2023-02-21T16:05:28;99441.47;;;11.76;87.96
13800;BME280;6971;50.028;9.258;2023-02-21T16:10:29;99439.75;;;11.44;90.78
13800;BME280;6971;50.028;9.258;2023-02-21T16:15:32;99437.69;;;11.03;94.70
13800;BME280;6971;50.028;9.258;2023-02-21T16:20:39;99436.53;;;10.75;97.75
13800;BME280;6971;50.028;9.258;2023-02-21T16:31:29;99439.72;;;10.14;100.00
13800;BME280;6971;50.028;9.258;2023-02-21T16:36:31;99431.22;;;9.73;100.00
13800;BME280;6971;50.028;9.258;2023-02-21T16:41:32;99431.81;;;9.43;100.00
13800;BME280;6971;50.028;9.258;2023-02-21T16:46:32;99437.81;;;9.10;100.00
13800;BME280;6971;50.028;9.258;2023-02-21T16:51:32;99433.41;;;8.91;100.00
13800;BME280;6971;50.028;9.258;2023-02-21T16:56:34;99441.03;;;8.78;100.00
13800;BME280;6971;50.028;9.258;2023-02-21T17:01:38;99446.56;;;8.32;100.00
13800;BME280;6971;50.028;9.258;2023-02-21T17:06:39;99437.88;;;8.10;100.00
13800;BME280;6971;50.028;9.258;2023-02-21T17:11:39;99450.22;;;7.88;100.00
13800;BME280;6971;50.028;9.258;2023-02-21T17:16:40;99448.81;;;7.79;100.00
13800;BME280;6971;50.028;9.258;2023-02-21T17:21:44;99446.81;;;7.42;100.00
13800;BME280;6971;50.028;9.258;2023-02-21T17:26:44;99444.13;;;7.22;100.00
13800;BME280;6971;50.028;9.258;2023-02-21T17:31:45;99452.06;;;6.98;100.00
13800;BME280;6971;50.028;9.258;2023-02-21T17:36:50;99445.78;;;6.78;100.00
13800;BME280;6971;50.028;9.258;2023-02-21T17:41:51;99454.53;;;6.55;100.00
13800;BME280;6971;50.028;9.258;2023-02-21T17:46:54;99459.94;;;6.50;100.00
13800;BME280;6971;50.028;9.258;2023-02-21T17:51:55;99464.97;;;6.31;100.00
13800;BME280;6971;50.028;9.258;2023-02-21T17:56:55;99469.66;;;6.21;100.00
13800;BME280;6971;50.028;9.258;2023-02-21T18:01:56;99470.47;;;5.97;100.00
13800;BME280;6971;50.028;9.258;2023-02-21T18:06:56;99470.88;;;5.85;100.00
13800;BME280;6971;50.028;9.258;2023-02-21T18:11:58;99470.28;;;5.77;100.00
13800;BME280;6971;50.028;9.258;2023-02-21T18:16:59;99473.94;;;5.71;100.00
13800;BME280;6971;50.028;9.258;2023-02-21T18:21:59;99469.22;;;5.55;100.00
13800;BME280;6971;50.028;9.258;2023-02-21T18:27:13;99468.81;;;5.41;100.00
13800;BME280;6971;50.028;9.258;2023-02-21T18:32:14;99476.22;;;5.26;100.00
13800;BME280;6971;50.028;9.258;2023-02-21T18:37:15;99469.91;;;5.33;100.00
13800;BME280;6971;50.028;9.258;2023-02-21T18:42:16;99474.28;;;5.04;100.00
13800;BME280;6971;50.028;9.258;2023-02-21T18:47:18;99474.75;;;4.89;100.00
13800;BME280;6971;50.028;9.258;2023-02-21T18:52:18;99479.19;;;4.85;100.00
13800;BME280;6971;50.028;9.258;2023-02-21T18:57:20;99480.34;;;4.76;100.00
13800;BME280;6971;50.028;9.258;2023-02-21T19:02:21;99483.09;;;4.70;100.00
13800;BME280;6971;50.028;9.258;2023-02-21T19:07:21;99478.16;;;4.61;100.00
13800;BME280;6971;50.028;9.258;2023-02-21T19:12:21;99474.19;;;4.47;100.00
13800;BME280;6971;50.028;9.258;2023-02-21T19:17:22;99470.16;;;4.35;100.00
13800;BME280;6971;50.028;9.258;2023-02-21T19:22:23;99471.38;;;4.23;100.00
13800;BME280;6971;50.028;9.258;2023-02-21T19:27:23;99469.66;;;4.22;100.00
13800;BME280;6971;50.028;9.258;2023-02-21T19:32:24;99471.81;;;4.06;100.00
13800;BME280;6971;50.028;9.258;2023-02-21T19:37:24;99464.84;;;4.07;100.00
13800;BME280;6971;50.028;9.258;2023-02-21T19:42:24;99462.41;;;4.00;100.00
13800;BME280;6971;50.028;9.258;2023-02-21T19:47:25;99457.63;;;3.83;100.00
13800;BME280;6971;50.028;9.258;2023-02-21T19:52:25;99465.69;;;3.72;100.00
13800;BME280;6971;50.028;9.258;2023-02-21T19:57:27;99464.94;;;3.69;100.00
13800;BME280;6971;50.028;9.258;2023-02-21T20:02:28;99456.63;;;3.54;100.00
13800;BME280;6971;50.028;9.258;2023-02-21T20:07:28;99462.06;;;3.45;100.00
13800;BME280;6971;50.028;9.258;2023-02-21T20:12:29;99453.41;;;3.43;100.00
13800;BME280;6971;50.028;9.258;2023-02-21T20:17:29;99462.88;;;3.45;100.00
13800;BME280;6971;50.028;9.258;2023-02-21T20:22:30;99461.63;;;3.25;100.00
13800;BME280;6971;50.028;9.258;2023-02-21T20:27:33;99459.97;;;3.21;100.00
13800;BME280;6971;50.028;9.258;2023-02-21T20:32:33;99455.06;;;3.09;100.00
13800;BME280;6971;50.028;9.258;2023-02-21T20:37:34;99461.09;;;3.11;100.00
13800;BME280;6971;50.028;9.258;2023-02-21T20:42:34;99456.03;;;3.03;100.00
13800;BME280;6971;50.028;9.258;2023-02-21T20:47:35;99457.06;;;2.97;100.00
13800;BME280;6971;50.028;9.258;2023-02-21T20:52:35;99461.69;;;2.83;100.00
13800;BME280;6971;50.028;9.258;2023-02-21T20:57:36;99451.22;;;2.86;100.00
13800;BME280;6971;50.028;9.258;2023-02-21T21:02:36;99457.44;;;2.79;100.00
13800;BME280;6971;50.028;9.258;2023-02-21T21:07:39;99442.63;;;2.82;100.00
13800;BME280;6971;50.028;9.258;2023-02-21T21:12:41;99440.28;;;2.70;100.00
13800;BME280;6971;50.028;9.258;2023-02-21T21:17:42;99446.53;;;2.61;100.00
13800;BME280;6971;50.028;9.258;2023-02-21T21:22:42;99443.09;;;2.60;100.00
13800;BME280;6971;50.028;9.258;2023-02-21T21:27:43;99442.28;;;2.57;100.00
13800;BME280;6971;50.028;9.258;2023-02-21T21:32:44;99437.22;;;2.51;100.00
13800;BME280;6971;50.028;9.258;2023-02-21T21:37:45;99436.41;;;2.48;100.00
13800;BME280;6971;50.028;9.258;2023-02-21T21:42:47;99435.56;;;2.46;100.00
13800;BME280;6971;50.028;9.258;2023-02-21T21:47:51;99430.50;;;2.39;100.00
13800;BME280;6971;50.028;9.258;2023-02-21T21:52:54;99425.34;;;2.37;100.00
13800;BME280;6971;50.028;9.258;2023-02-21T21:57:57;99420.19;;;2.34;100.00
13800;BME280;6971;50.028;9.258;2023-02-21T22:02:59;99430.78;;;2.25;100.00
13800;BME280;6971;50.028;9.258;2023-02-21T22:08:01;99429.06;;;2.24;100.00
13800;BME280;6971;50.028;9.258;2023-02-21T22:13:01;99425.59;;;2.23;100.00
13800;BME280;6971;50.028;9.258;2023-02-21T22:18:17;99422.09;;;2.26;100.00
13800;BME280;6971;50.028;9.258;2023-02-21T22:23:19;99422.22;;;2.19;100.00
13800;BME280;6971;50.028;9.258;2023-02-21T22:28:23;99409.19;;;2.21;100.00
13800;BME280;6971;50.028;9.258;2023-02-21T22:33:23;99414.41;;;2.21;100.00
13800;BME280;6971;50.028;9.258;2023-02-21T22:38:25;99418.00;;;2.14;100.00
13800;BME280;6971;50.028;9.258;2023-02-21T22:43:26;99413.72;;;2.11;100.00
13800;BME280;6971;50.028;9.258;2023-02-21T22:48:27;99406.97;;;2.02;100.00
13800;BME280;6971;50.028;9.258;2023-02-21T22:53:27;99400.91;;;2.00;100.00
13800;BME280;6971;50.028;9.258;2023-02-21T22:58:27;99404.38;;;2.01;100.00
13800;BME280;6971;50.028;9.258;2023-02-21T23:03:28;99405.31;;;1.98;100.00
13800;BME280;6971;50.028;9.258;2023-02-21T23:08:31;99402.63;;;2.01;100.00
13800;BME280;6971;50.028;9.258;2023-02-21T23:13:34;99403.50;;;2.02;100.00
13800;BME280;6971;50.028;9.258;2023-02-21T23:18:34;99393.13;;;1.99;100.00
13800;BME280;6971;50.028;9.258;2023-02-21T23:23:37;99389.72;;;1.98;100.00
13800;BME280;6971;50.028;9.258;2023-02-21T23:28:37;99388.81;;;1.99;100.00
13800;BME280;6971;50.028;9.258;2023-02-21T23:33:38;99386.28;;;1.94;100.00
13800;BME280;6971;50.028;9.258;2023-02-21T23:38:39;99390.88;;;1.81;100.00
13800;BME280;6971;50.028;9.258;2023-02-21T23:43:42;99384.81;;;1.81;100.00
13800;BME280;6971;50.028;9.258;2023-02-21T23:48:45;99371.00;;;1.79;100.00
13800;BME280;6971;50.028;9.258;2023-02-21T23:53:45;99377.00;;;1.81;100.00
13800;BME280;6971;50.028;9.258;2023-02-21T23:58:46;99371.03;;;1.76;100.00
